createdAt,value
2023-06-17T00:00:29.657Z,100101.88
2023-06-17T00:03:31.684Z,100097.13
2023-06-17T00:06:33.949Z,100095.94
2023-06-17T00:09:36.887Z,100091.59
2023-06-17T00:12:39.486Z,100092.53
2023-06-17T00:15:43.668Z,100084.47
2023-06-17T00:18:49.515Z,100084.78
2023-06-17T00:21:54.053Z,100073.63
2023-06-17T00:24:56.251Z,100070.47
2023-06-17T00:27:58.655Z,100070.03
2023-06-17T00:31:00.812Z,100062.50
2023-06-17T00:34:02.749Z,100062.66
2023-06-17T00:37:06.184Z,100060.81
2023-06-17T00:40:11.611Z,100063.09
2023-06-17T00:43:14.440Z,100064.25
2023-06-17T00:46:41.202Z,100060.56
2023-06-17T00:49:47.394Z,100065.97
2023-06-17T00:52:53.729Z,100072.53
2023-06-17T00:55:55.991Z,100070.75
2023-06-17T00:59:01.885Z,100068.97
2023-06-17T01:02:04.696Z,100068.09
2023-06-17T01:05:13.910Z,100060.59
2023-06-17T01:08:54.762Z,100067.63
2023-06-17T01:11:58.860Z,100058.25
2023-06-17T01:15:02.998Z,100064.59
2023-06-17T01:18:08.482Z,100062.53
2023-06-17T01:21:10.905Z,100050.53
2023-06-17T01:24:15.050Z,100059.31
2023-06-17T01:27:20.231Z,100061.28
2023-06-17T01:30:23.413Z,100055.41
2023-06-17T01:33:26.589Z,100063.13
2023-06-17T01:36:38.197Z,100056.00
2023-06-17T01:39:46.079Z,100061.66
2023-06-17T01:42:54.115Z,100065.56
2023-06-17T01:45:57.929Z,100054.91
2023-06-17T01:49:00.561Z,100064.25
2023-06-17T01:52:04.259Z,100058.81
2023-06-17T01:55:07.758Z,100057.25
2023-06-17T01:58:10.161Z,100062.53
2023-06-17T02:01:13.733Z,100057.53
2023-06-17T02:04:16.148Z,100052.09
2023-06-17T02:07:19.325Z,100052.81
2023-06-17T02:10:23.906Z,100050.69
2023-06-17T02:13:26.346Z,100049.31
2023-06-17T02:16:28.639Z,100047.47
2023-06-17T02:19:35.587Z,100051.88
2023-06-17T02:22:37.973Z,100047.69
2023-06-17T02:25:41.236Z,100054.38
2023-06-17T02:28:45.011Z,100044.59
2023-06-17T02:31:47.478Z,100056.47
2023-06-17T02:34:50.785Z,100057.50
2023-06-17T02:37:55.634Z,100055.47
2023-06-17T02:40:58.018Z,100067.06
2023-06-17T02:44:00.425Z,100068.25
2023-06-17T02:47:04.575Z,100056.06
2023-06-17T02:50:08.067Z,100063.56
2023-06-17T02:53:10.239Z,100065.44
2023-06-17T02:56:12.535Z,100064.28
2023-06-17T02:59:16.387Z,100068.38
2023-06-17T03:02:20.812Z,100067.94
2023-06-17T03:05:25.816Z,100063.59
2023-06-17T03:08:30.056Z,100064.50
2023-06-17T03:11:32.105Z,100069.81
2023-06-17T03:14:34.844Z,100065.63
2023-06-17T03:17:39.386Z,100076.91
2023-06-17T03:20:44.359Z,100072.56
2023-06-17T03:23:47.112Z,100087.38
2023-06-17T03:26:49.379Z,100084.72
2023-06-17T03:29:51.534Z,100067.75
2023-06-17T03:32:54.817Z,100082.81
2023-06-17T03:35:58.335Z,100080.72
2023-06-17T03:39:00.380Z,100091.53
2023-06-17T03:42:02.332Z,100095.75
2023-06-17T03:45:06.332Z,100089.72
2023-06-17T03:48:08.909Z,100098.78
2023-06-17T03:51:14.135Z,100084.66
2023-06-17T03:54:16.268Z,100098.19
2023-06-17T03:57:19.516Z,100096.75
2023-06-17T04:00:23.249Z,100098.72
2023-06-17T04:03:26.533Z,100094.81
2023-06-17T04:06:30.206Z,100099.47
2023-06-17T04:09:32.844Z,100093.56
2023-06-17T04:12:39.106Z,100100.44
2023-06-17T04:15:42.477Z,100104.53
2023-06-17T04:18:45.781Z,100108.72
2023-06-17T04:21:49.986Z,100112.56
2023-06-17T04:24:57.733Z,100115.66
2023-06-17T04:28:02.644Z,100112.44
2023-06-17T04:31:06.073Z,100111.94
2023-06-17T04:34:08.915Z,100116.44
2023-06-17T04:37:11.157Z,100123.13
2023-06-17T04:40:14.445Z,100117.72
2023-06-17T04:43:16.522Z,100123.06
2023-06-17T04:46:20.573Z,100117.44
2023-06-17T04:49:23.802Z,100120.97
2023-06-17T04:52:27.048Z,100114.81
2023-06-17T04:55:29.818Z,100114.28
2023-06-17T04:58:31.844Z,100114.72
2023-06-17T05:01:35.343Z,100123.72
2023-06-17T05:04:37.370Z,100123.16
2023-06-17T05:07:39.730Z,100122.75
2023-06-17T05:10:41.639Z,100127.88
2023-06-17T05:13:43.861Z,100117.16
2023-06-17T05:16:46.895Z,100133.03
2023-06-17T05:19:51.037Z,100114.94
2023-06-17T05:22:53.118Z,100118.66
2023-06-17T05:25:55.311Z,100123.63
2023-06-17T05:28:58.342Z,100126.63
2023-06-17T05:32:01.927Z,100118.13
2023-06-17T05:35:04.387Z,100121.72
2023-06-17T05:38:09.042Z,100123.66
2023-06-17T05:41:11.207Z,100134.53
2023-06-17T05:44:13.314Z,100128.91
2023-06-17T05:47:15.409Z,100137.19
2023-06-17T05:50:18.143Z,100138.25
2023-06-17T05:53:22.530Z,100147.59
2023-06-17T05:56:24.729Z,100142.97
2023-06-17T05:59:29.963Z,100143.09
2023-06-17T06:02:32.001Z,100153.47
2023-06-17T06:05:34.013Z,100163.75
2023-06-17T06:08:36.530Z,100152.22
2023-06-17T06:11:38.627Z,100153.47
2023-06-17T06:14:41.504Z,100156.50
2023-06-17T06:17:45.608Z,100155.44
2023-06-17T06:20:50.261Z,100155.53
2023-06-17T06:23:53.934Z,100149.94
2023-06-17T06:26:58.717Z,100143.06
2023-06-17T06:30:01.403Z,100164.63
2023-06-17T06:33:05.116Z,100155.34
2023-06-17T06:36:11.547Z,100153.16
2023-06-17T06:39:15.259Z,100139.50
2023-06-17T06:42:17.892Z,100156.34
2023-06-17T06:45:21.364Z,100160.13
2023-06-17T06:48:29.594Z,100154.06
2023-06-17T06:51:32.451Z,100163.38
2023-06-17T06:54:34.734Z,100170.72
2023-06-17T06:57:37.274Z,100168.72
2023-06-17T07:00:40.837Z,100157.91
2023-06-17T07:03:45.552Z,100171.56
2023-06-17T07:06:47.974Z,100165.88
2023-06-17T07:09:51.242Z,100158.75
2023-06-17T07:12:53.571Z,100166.63
2023-06-17T07:15:55.642Z,100171.13
2023-06-17T07:18:57.862Z,100162.81
2023-06-17T07:22:00.171Z,100168.06
2023-06-17T07:25:02.638Z,100174.75
2023-06-17T07:28:05.046Z,100170.06
2023-06-17T07:31:07.921Z,100174.72
2023-06-17T07:34:10.071Z,100169.19
2023-06-17T07:37:12.057Z,100162.81
2023-06-17T07:40:14.833Z,100171.28
2023-06-17T07:43:17.227Z,100168.19
2023-06-17T07:46:19.780Z,100167.19
2023-06-17T07:49:22.042Z,100177.19
2023-06-17T07:52:25.177Z,100167.97
2023-06-17T07:55:27.905Z,100172.56
2023-06-17T07:58:29.866Z,100159.72
2023-06-17T08:01:33.699Z,100156.16
2023-06-17T08:04:36.039Z,100161.06
2023-06-17T08:07:38.147Z,100164.31
2023-06-17T08:10:40.354Z,100154.09
2023-06-17T08:13:42.294Z,100156.16
2023-06-17T08:16:48.222Z,100155.44
2023-06-17T08:19:50.303Z,100154.13
2023-06-17T08:22:52.647Z,100161.75
2023-06-17T08:25:54.813Z,100157.97
2023-06-17T08:28:56.858Z,100162.16
2023-06-17T08:31:59.177Z,100165.75
2023-06-17T08:35:06.679Z,100168.50
2023-06-17T08:38:08.519Z,100162.66
2023-06-17T08:41:10.750Z,100178.13
2023-06-17T08:44:14.945Z,100167.44
2023-06-17T08:47:17.955Z,100169.44
2023-06-17T08:50:20.572Z,100174.22
2023-06-17T08:53:24.885Z,100168.59
2023-06-17T08:56:26.840Z,100167.81
2023-06-17T08:59:50.291Z,100170.28
2023-06-17T09:02:56.027Z,100159.94
2023-06-17T09:05:59.075Z,100172.34
2023-06-17T09:09:01.922Z,100171.91
2023-06-17T09:12:09.848Z,100180.94
2023-06-17T09:15:21.784Z,100166.13
2023-06-17T09:18:24.349Z,100165.22
2023-06-17T09:21:28.347Z,100169.56
2023-06-17T09:24:32.256Z,100167.91
2023-06-17T09:27:35.211Z,100165.41
2023-06-17T09:30:38.603Z,100163.56
2023-06-17T09:33:44.969Z,100157.47
2023-06-17T09:36:53.468Z,100165.25
2023-06-17T09:39:56.120Z,100173.13
2023-06-17T09:43:16.327Z,100178.94
2023-06-17T09:46:31.163Z,100173.03
2023-06-17T09:49:36.256Z,100177.28
2023-06-17T09:52:39.537Z,100163.06
2023-06-17T09:55:44.841Z,100169.72
2023-06-17T09:58:48.818Z,100168.31
2023-06-17T10:01:52.026Z,100172.94
2023-06-17T10:04:55.194Z,100166.78
2023-06-17T10:07:59.086Z,100178.63
2023-06-17T10:11:02.251Z,100168.28
2023-06-17T10:14:09.256Z,100171.47
2023-06-17T10:17:12.809Z,100171.28
2023-06-17T10:20:16.905Z,100179.88
2023-06-17T10:23:23.489Z,100172.72
2023-06-17T10:26:25.825Z,100167.22
2023-06-17T10:29:28.815Z,100171.31
2023-06-17T10:32:31.605Z,100173.59
2023-06-17T10:35:40.982Z,100171.69
2023-06-17T10:38:53.359Z,100170.19
2023-06-17T10:42:03.974Z,100165.00
2023-06-17T10:45:14.043Z,100177.97
2023-06-17T10:48:25.196Z,100172.88
2023-06-17T10:54:36.467Z,100168.59
2023-06-17T10:57:38.726Z,100178.78
2023-06-17T11:00:40.913Z,100160.00
2023-06-17T11:03:43.255Z,100175.03
2023-06-17T11:06:49.286Z,100163.22
2023-06-17T11:09:54.578Z,100165.94
2023-06-17T11:12:57.179Z,100165.66
2023-06-17T11:16:03.433Z,100176.63
2023-06-17T11:19:10.798Z,100164.81
2023-06-17T11:22:14.490Z,100172.84
2023-06-17T11:25:20.903Z,100154.13
2023-06-17T11:28:28.937Z,100163.25
2023-06-17T11:31:37.394Z,100152.78
2023-06-17T11:34:43.152Z,100157.06
2023-06-17T11:37:48.196Z,100163.25
2023-06-17T11:40:56.907Z,100149.00
2023-06-17T11:43:59.544Z,100148.16
2023-06-17T11:47:10.422Z,100157.91
2023-06-17T11:50:13.269Z,100152.25
2023-06-17T11:53:15.730Z,100145.81
2023-06-17T11:56:21.631Z,100139.59
2023-06-17T11:59:24.571Z,100135.31
2023-06-17T12:02:35.393Z,100115.03
2023-06-17T12:05:39.697Z,100139.56
2023-06-17T12:08:44.202Z,100134.84
2023-06-17T12:11:47.231Z,100115.56
2023-06-17T12:14:50.430Z,100147.97
2023-06-17T12:17:52.800Z,100130.53
2023-06-17T12:20:56.502Z,100138.59
2023-06-17T12:23:58.864Z,100123.56
2023-06-17T12:27:01.811Z,100136.69
2023-06-17T12:30:06.047Z,100131.63
2023-06-17T12:33:08.509Z,100130.28
2023-06-17T12:36:11.435Z,100121.69
2023-06-17T12:39:13.824Z,100138.84
2023-06-17T12:42:18.507Z,100132.69
2023-06-17T12:45:22.336Z,100135.91
2023-06-17T12:48:26.495Z,100135.84
2023-06-17T12:51:29.684Z,100136.66
2023-06-17T12:54:32.673Z,100131.63
2023-06-17T12:57:35.373Z,100138.56
2023-06-17T13:00:38.495Z,100138.31
2023-06-17T13:03:41.592Z,100134.50
2023-06-17T13:06:54.456Z,100121.97
2023-06-17T13:09:59.087Z,100133.25
2023-06-17T13:13:02.038Z,100133.19
2023-06-17T13:16:05.628Z,100118.22
2023-06-17T13:19:09.723Z,100123.59
2023-06-17T13:22:15.499Z,100120.38
2023-06-17T13:25:23.056Z,100127.84
2023-06-17T13:28:28.278Z,100129.19
2023-06-17T13:31:31.158Z,100103.75
2023-06-17T13:34:34.210Z,100114.47
2023-06-17T13:37:37.423Z,100120.84
2023-06-17T13:40:40.150Z,100132.38
2023-06-17T13:43:48.441Z,100126.50
2023-06-17T13:46:51.212Z,100107.75
2023-06-17T13:49:53.991Z,100105.56
2023-06-17T13:52:56.494Z,100120.06
2023-06-17T13:56:02.401Z,100115.78
2023-06-17T13:59:04.540Z,100120.09
2023-06-17T14:02:19.342Z,100123.25
2023-06-17T14:05:22.554Z,100135.53
2023-06-17T14:08:25.689Z,100121.94
2023-06-17T14:11:31.506Z,100108.00
2023-06-17T14:14:34.041Z,100100.59
2023-06-17T14:17:36.886Z,100125.22
2023-06-17T14:20:43.896Z,100097.69
2023-06-17T14:23:54.619Z,100133.91
2023-06-17T14:27:15.705Z,100132.78
2023-06-17T14:30:18.180Z,100126.09
2023-06-17T14:33:21.965Z,100122.59
2023-06-17T14:36:24.593Z,100099.38
2023-06-17T14:39:27.181Z,100093.78
2023-06-17T14:42:32.807Z,100116.44
2023-06-17T14:45:35.600Z,100093.88
2023-06-17T14:48:38.664Z,100093.19
2023-06-17T14:51:41.849Z,100103.28
2023-06-17T14:54:44.824Z,100089.19
2023-06-17T14:57:47.862Z,100100.78
2023-06-17T15:00:53.562Z,100061.16
2023-06-17T15:04:00.104Z,100058.69
2023-06-17T15:07:06.289Z,100076.38
2023-06-17T15:10:09.638Z,100104.72
2023-06-17T15:13:12.572Z,100099.31
2023-06-17T15:16:16.786Z,100092.06
2023-06-17T15:19:19.610Z,100078.16
2023-06-17T15:22:25.696Z,100075.47
2023-06-17T15:25:28.560Z,100079.56
2023-06-17T15:28:31.144Z,100105.28
2023-06-17T15:31:34.680Z,100074.72
2023-06-17T15:34:37.304Z,100108.00
2023-06-17T15:37:39.836Z,100103.72
2023-06-17T15:40:42.268Z,100105.25
2023-06-17T15:43:44.734Z,100109.00
2023-06-17T15:46:47.693Z,100098.56
2023-06-17T15:49:50.890Z,100106.31
2023-06-17T15:52:53.541Z,100102.34
2023-06-17T15:55:56.621Z,100104.75
2023-06-17T15:59:01.633Z,100098.34
2023-06-17T16:02:04.377Z,100116.06
2023-06-17T16:05:07.188Z,100126.25
2023-06-17T16:08:09.326Z,100118.22
2023-06-17T16:11:11.895Z,100119.81
2023-06-17T16:14:14.043Z,100108.34
2023-06-17T16:17:16.466Z,100116.84
2023-06-17T16:20:19.188Z,100113.66
2023-06-17T16:23:22.056Z,100124.13
2023-06-17T16:26:25.337Z,100127.31
2023-06-17T16:29:33.994Z,100113.94
2023-06-17T16:32:36.330Z,100132.44
2023-06-17T16:35:42.176Z,100138.31
2023-06-17T16:38:44.356Z,100131.88
2023-06-17T16:41:49.994Z,100140.19
2023-06-17T16:44:52.361Z,100147.09
2023-06-17T16:47:54.706Z,100147.97
2023-06-17T16:50:56.869Z,100160.53
2023-06-17T16:54:01.799Z,100163.19
2023-06-17T16:57:06.931Z,100158.34
2023-06-17T17:00:09.869Z,100168.25
2023-06-17T17:03:12.421Z,100163.97
2023-06-17T17:06:14.684Z,100162.63
2023-06-17T17:09:16.783Z,100179.50
2023-06-17T17:12:18.931Z,100175.75
2023-06-17T17:15:22.774Z,100187.47
2023-06-17T17:18:28.819Z,100189.09
2023-06-17T17:21:31.042Z,100185.59
2023-06-17T17:24:33.336Z,100185.56
2023-06-17T17:27:35.461Z,100190.63
2023-06-17T17:30:38.155Z,100193.84
2023-06-17T17:33:40.411Z,100191.97
2023-06-17T17:36:42.964Z,100187.13
2023-06-17T17:39:46.876Z,100189.75
2023-06-17T17:42:53.745Z,100195.88
2023-06-17T17:45:56.571Z,100193.66
2023-06-17T17:48:59.542Z,100197.91
2023-06-17T17:52:02.949Z,100186.03
2023-06-17T17:55:05.822Z,100205.59
2023-06-17T17:58:08.515Z,100202.06
2023-06-17T18:01:10.952Z,100206.59
2023-06-17T18:04:16.998Z,100201.00
2023-06-17T18:07:22.685Z,100195.59
2023-06-17T18:10:25.288Z,100191.72
2023-06-17T18:13:28.554Z,100230.59
2023-06-17T18:16:31.685Z,100229.97
2023-06-17T18:19:34.116Z,100222.94
2023-06-17T18:22:38.307Z,100235.25
2023-06-17T18:25:40.983Z,100244.81
2023-06-17T18:28:43.645Z,100250.94
2023-06-17T18:31:46.404Z,100254.63
2023-06-17T18:34:49.677Z,100252.19
2023-06-17T18:37:52.145Z,100260.66
2023-06-17T18:40:54.530Z,100261.66
2023-06-17T18:43:56.960Z,100255.69
2023-06-17T18:47:01.351Z,100262.34
2023-06-17T18:50:04.288Z,100262.88
2023-06-17T18:53:06.699Z,100261.00
2023-06-17T18:56:09.264Z,100263.63
2023-06-17T18:59:12.130Z,100267.56
2023-06-17T19:02:14.446Z,100270.72
2023-06-17T19:05:16.952Z,100278.16
2023-06-17T19:08:19.614Z,100279.47
2023-06-17T19:11:24.856Z,100281.03
2023-06-17T19:14:27.929Z,100293.19
2023-06-17T19:17:30.513Z,100285.63
2023-06-17T19:20:33.278Z,100282.59
2023-06-17T19:23:35.708Z,100287.31
2023-06-17T19:26:38.383Z,100292.34
2023-06-17T19:29:41.050Z,100299.22
2023-06-17T19:32:43.659Z,100305.06
2023-06-17T19:35:46.886Z,100310.78
2023-06-17T19:38:49.843Z,100309.19
2023-06-17T19:41:52.821Z,100315.84
2023-06-17T19:44:58.256Z,100317.13
2023-06-17T19:48:05.514Z,100314.38
2023-06-17T19:51:08.418Z,100313.81
2023-06-17T19:54:10.759Z,100308.31
2023-06-17T19:57:13.315Z,100300.19
2023-06-17T20:00:16.326Z,100306.66
2023-06-17T20:03:18.844Z,100315.13
2023-06-17T20:06:21.956Z,100313.50
2023-06-17T20:09:25.223Z,100314.06
2023-06-17T20:12:27.480Z,100306.22
2023-06-17T20:15:31.028Z,100302.75
2023-06-17T20:18:33.111Z,100299.69
2023-06-17T20:21:35.446Z,100303.06
2023-06-17T20:24:40.383Z,100310.53
2023-06-17T20:27:44.993Z,100307.09
2023-06-17T20:30:47.263Z,100313.94
2023-06-17T20:33:50.139Z,100313.84
2023-06-17T20:36:53.928Z,100313.78
2023-06-17T20:39:57.272Z,100305.69
2023-06-17T20:42:59.468Z,100298.75
2023-06-17T20:46:03.016Z,100310.53
2023-06-17T20:49:05.217Z,100305.84
2023-06-17T20:52:08.034Z,100299.94
2023-06-17T20:55:10.695Z,100302.19
2023-06-17T20:58:13.249Z,100295.84
2023-06-17T21:01:18.560Z,100296.88
2023-06-17T21:04:23.808Z,100294.06
2023-06-17T21:07:26.300Z,100296.94
2023-06-17T21:10:30.156Z,100302.66
2023-06-17T21:13:32.520Z,100300.25
2023-06-17T21:16:35.622Z,100297.91
2023-06-17T21:19:38.106Z,100298.63
2023-06-17T21:22:40.353Z,100301.84
2023-06-17T21:25:46.460Z,100288.47
2023-06-17T21:28:48.893Z,100290.56
2023-06-17T21:31:51.283Z,100297.56
2023-06-17T21:34:53.646Z,100307.41
2023-06-17T21:37:56.419Z,100302.25
2023-06-17T21:40:58.968Z,100289.03
2023-06-17T21:44:01.348Z,100301.31
2023-06-17T21:47:03.816Z,100303.06
2023-06-17T21:50:06.499Z,100297.88
2023-06-17T21:53:08.557Z,100302.84
2023-06-17T21:56:11.939Z,100297.16
2023-06-17T21:59:15.624Z,100297.06
2023-06-17T22:02:17.714Z,100306.06
2023-06-17T22:05:19.698Z,100306.88
2023-06-17T22:08:27.527Z,100319.75
2023-06-17T22:11:36.360Z,100328.19
2023-06-17T22:14:38.664Z,100321.81
2023-06-17T22:17:41.226Z,100329.94
2023-06-17T22:20:43.219Z,100322.78
2023-06-17T22:23:45.478Z,100324.38
2023-06-17T22:26:47.494Z,100331.28
2023-06-17T22:29:49.745Z,100322.53
2023-06-17T22:32:52.141Z,100322.06
2023-06-17T22:35:54.107Z,100327.72
2023-06-17T22:38:56.317Z,100327.47
2023-06-17T22:41:58.410Z,100332.41
2023-06-17T22:45:00.602Z,100328.47
2023-06-17T22:48:03.944Z,100332.34
2023-06-17T22:51:05.959Z,100341.19
2023-06-17T22:54:08.148Z,100337.50
2023-06-17T22:57:13.168Z,100335.19
2023-06-17T23:00:15.675Z,100339.69
2023-06-17T23:03:17.827Z,100338.38
2023-06-17T23:06:20.028Z,100334.16
2023-06-17T23:09:22.496Z,100327.75
2023-06-17T23:12:24.901Z,100333.56
2023-06-17T23:15:27.156Z,100315.63
2023-06-17T23:18:29.530Z,100333.44
2023-06-17T23:21:34.143Z,100331.56
2023-06-17T23:24:36.986Z,100330.91
2023-06-17T23:27:39.154Z,100345.63
2023-06-17T23:30:41.357Z,100334.63
2023-06-17T23:33:44.221Z,100323.31
2023-06-17T23:36:46.532Z,100342.97
2023-06-17T23:39:49.049Z,100335.00
2023-06-17T23:42:51.771Z,100343.25
2023-06-17T23:45:56.162Z,100339.50
2023-06-17T23:48:58.517Z,100339.72
2023-06-17T23:52:02.956Z,100333.59
2023-06-17T23:55:05.445Z,100324.91
2023-06-17T23:58:07.407Z,100333.22
